createdAt,value
2023-01-20T00:02:00.940Z,15.87
2023-01-20T00:06:01.955Z,18.60
2023-01-20T00:10:03.283Z,17.13
2023-01-20T00:14:04.288Z,18.77
2023-01-20T00:18:05.392Z,18.90
2023-01-20T00:22:06.332Z,18.60
2023-01-20T00:26:10.521Z,16.50
2023-01-20T00:30:12.389Z,16.47
2023-01-20T00:34:13.455Z,16.63
2023-01-20T00:38:15.068Z,18.23
2023-01-20T00:42:17.031Z,18.27
2023-01-20T00:46:18.020Z,19.47
2023-01-20T00:50:18.895Z,17.53
2023-01-20T00:54:20.212Z,15.13
2023-01-20T00:58:21.313Z,19.00
2023-01-20T01:02:22.498Z,16.70
2023-01-20T01:06:23.607Z,16.63
2023-01-20T01:10:24.694Z,18.90
2023-01-20T01:14:25.763Z,18.60
2023-01-20T01:18:27.009Z,20.27
2023-01-20T01:22:28.073Z,18.17
2023-01-20T01:26:29.599Z,18.07
2023-01-20T01:30:30.743Z,21.90
2023-01-20T01:34:32.136Z,22.77
2023-01-20T01:38:33.571Z,21.57
2023-01-20T01:42:34.857Z,17.97
2023-01-20T01:46:37.125Z,16.00
2023-01-20T01:50:47.610Z,17.17
2023-01-20T01:54:50.136Z,20.53
2023-01-20T01:58:54.429Z,17.07
2023-01-20T02:02:56.407Z,16.83
2023-01-20T02:07:03.942Z,15.27
2023-01-20T02:11:05.087Z,16.67
2023-01-20T02:15:06.998Z,21.50
2023-01-20T02:19:34.574Z,20.07
2023-01-20T02:23:51.490Z,19.53
2023-01-20T02:28:20.243Z,20.37
2023-01-20T02:32:33.847Z,18.37
2023-01-20T02:37:01.203Z,16.50
2023-01-20T02:41:15.324Z,17.23
2023-01-20T02:45:25.753Z,19.60
2023-01-20T02:49:36.302Z,18.23
2023-01-20T02:53:44.011Z,19.47
2023-01-20T02:57:51.638Z,17.53
2023-01-20T03:02:08.554Z,17.57
2023-01-20T03:06:19.395Z,16.30
2023-01-20T03:10:23.665Z,16.33
2023-01-20T03:14:24.800Z,15.23
2023-01-20T03:18:28.319Z,15.77
2023-01-20T03:22:30.283Z,13.97
2023-01-20T03:26:31.267Z,14.13
2023-01-20T03:30:32.491Z,14.80
2023-01-20T03:34:36.593Z,15.43
2023-01-20T03:38:37.696Z,13.73
2023-01-20T03:42:45.333Z,13.33
2023-01-20T03:47:02.214Z,14.17
2023-01-20T03:51:21.992Z,13.53
2023-01-20T03:55:29.776Z,13.27
2023-01-20T03:59:34.096Z,14.37
2023-01-20T04:03:38.840Z,14.37
2023-01-20T04:07:42.454Z,14.23
2023-01-20T04:11:43.686Z,13.37
2023-01-20T04:15:45.818Z,12.63
2023-01-20T04:19:47.842Z,13.23
2023-01-20T04:23:58.756Z,10.87
2023-01-20T04:27:59.752Z,11.30
2023-01-20T04:32:02.006Z,9.93
2023-01-20T04:36:03.453Z,10.77
2023-01-20T04:40:05.546Z,10.67
2023-01-20T04:44:06.712Z,10.67
2023-01-20T04:48:08.433Z,10.87
2023-01-20T04:52:09.529Z,9.93
2023-01-20T04:56:12.341Z,9.97
2023-01-20T05:00:16.040Z,10.07
2023-01-20T05:04:17.182Z,8.63
2023-01-20T05:08:18.132Z,10.33
2023-01-20T05:12:19.256Z,10.87
2023-01-20T05:16:22.248Z,8.23
2023-01-20T05:20:23.282Z,10.27
2023-01-20T05:24:24.299Z,10.97
2023-01-20T05:28:25.455Z,11.40
2023-01-20T05:32:26.369Z,11.93
2023-01-20T05:36:27.611Z,12.67
2023-01-20T05:40:28.651Z,13.38
2023-01-20T05:44:29.748Z,14.03
2023-01-20T05:48:31.119Z,14.23
2023-01-20T05:52:32.206Z,12.80
2023-01-20T05:56:34.406Z,14.23
2023-01-20T06:00:36.001Z,13.03
2023-01-20T06:04:36.923Z,12.10
2023-01-20T06:08:37.884Z,13.17
2023-01-20T06:12:38.849Z,12.23
2023-01-20T06:16:39.893Z,12.27
2023-01-20T06:20:40.864Z,13.87
2023-01-20T06:24:41.872Z,14.63
2023-01-20T06:28:42.796Z,14.03
2023-01-20T06:32:46.345Z,13.30
2023-01-20T06:36:47.297Z,12.47
2023-01-20T06:40:48.430Z,13.83
2023-01-20T06:44:49.477Z,13.47
2023-01-20T06:48:50.428Z,13.30
2023-01-20T06:52:53.005Z,25.33
2023-01-20T06:56:53.939Z,16.80
2023-01-20T07:00:56.436Z,16.07
2023-01-20T07:04:57.665Z,18.97
2023-01-20T07:08:59.919Z,26.47
2023-01-20T07:13:01.134Z,20.07
2023-01-20T07:17:02.178Z,20.53
2023-01-20T07:21:04.332Z,18.33
2023-01-20T07:25:05.785Z,17.53
2023-01-20T07:29:06.889Z,16.40
2023-01-20T07:33:07.859Z,18.33
2023-01-20T07:37:08.920Z,17.63
2023-01-20T07:41:12.632Z,20.80
2023-01-20T07:45:14.289Z,22.67
2023-01-20T07:49:15.304Z,19.07
2023-01-20T07:53:16.416Z,18.73
2023-01-20T07:57:17.501Z,20.23
2023-01-20T08:01:25.020Z,19.17
2023-01-20T08:05:26.132Z,20.37
2023-01-20T08:09:27.458Z,18.70
2023-01-20T08:13:29.350Z,36.10
2023-01-20T08:17:30.751Z,52.17
2023-01-20T08:21:32.862Z,25.83
2023-01-20T08:25:33.974Z,26.37
2023-01-20T08:29:36.943Z,36.23
2023-01-20T08:33:38.883Z,31.53
2023-01-20T08:37:39.842Z,29.20
2023-01-20T08:41:42.701Z,35.37
2023-01-20T08:45:43.723Z,29.57
2023-01-20T08:49:44.883Z,24.30
2023-01-20T08:53:46.015Z,23.90
2023-01-20T08:57:46.979Z,23.50
2023-01-20T09:01:48.318Z,23.97
2023-01-20T09:05:50.049Z,21.97
2023-01-20T09:09:51.249Z,21.20
2023-01-20T09:13:53.958Z,19.07
2023-01-20T09:17:55.191Z,17.37
2023-01-20T09:21:56.879Z,16.33
2023-01-20T09:26:01.961Z,16.13
2023-01-20T09:30:04.181Z,15.37
2023-01-20T09:34:05.762Z,13.87
2023-01-20T09:38:25.746Z,17.20
2023-01-20T09:43:10.177Z,23.87
2023-01-20T09:47:29.725Z,22.07
2023-01-20T09:51:58.063Z,22.37
2023-01-20T09:56:08.380Z,23.63
2023-01-20T10:00:16.724Z,23.73
2023-01-20T10:04:29.117Z,24.07
2023-01-20T10:08:36.647Z,21.67
2023-01-20T10:12:41.528Z,20.50
2023-01-20T10:17:04.425Z,16.80
2023-01-20T10:21:15.213Z,14.63
2023-01-20T10:25:32.242Z,14.00
2023-01-20T10:29:40.132Z,14.30
2023-01-20T10:33:44.429Z,16.27
2023-01-20T10:37:45.657Z,15.47
2023-01-20T10:41:50.464Z,15.90
2023-01-20T10:46:04.799Z,16.03
2023-01-20T10:50:27.618Z,18.83
2023-01-20T10:54:50.762Z,17.50
2023-01-20T10:58:51.998Z,18.00
2023-01-20T11:02:53.700Z,20.77
2023-01-20T11:06:58.303Z,21.97
2023-01-20T11:11:03.462Z,20.90
2023-01-20T11:15:08.698Z,20.63
2023-01-20T11:19:11.384Z,23.33
2023-01-20T11:23:19.086Z,21.00
2023-01-20T11:27:23.237Z,23.17
2023-01-20T11:31:49.411Z,24.97
2023-01-20T11:36:05.148Z,25.73
2023-01-20T11:40:19.261Z,23.33
2023-01-20T11:44:20.526Z,23.70
2023-01-20T11:48:22.867Z,25.53
2023-01-20T11:52:24.067Z,24.90
2023-01-20T11:56:25.801Z,22.07
2023-01-20T12:00:43.302Z,24.50
2023-01-20T12:04:52.204Z,23.57
2023-01-20T12:09:02.828Z,23.13
2023-01-20T12:13:22.592Z,22.67
2023-01-20T12:17:45.767Z,22.07
2023-01-20T12:21:50.585Z,23.60
2023-01-20T12:25:57.032Z,22.13
2023-01-20T12:30:08.072Z,27.87
2023-01-20T12:34:15.066Z,28.13
2023-01-20T12:38:19.228Z,29.43
2023-01-20T12:42:24.027Z,33.50
2023-01-20T12:46:40.782Z,31.90
2023-01-20T12:50:57.142Z,32.67
2023-01-20T12:55:07.812Z,32.27
2023-01-20T12:59:27.980Z,33.30
2023-01-20T13:04:01.730Z,32.43
2023-01-20T13:08:15.769Z,31.47
2023-01-20T13:12:30.058Z,28.63
2023-01-20T13:16:42.704Z,26.30
2023-01-20T13:20:45.912Z,27.07
2023-01-20T13:24:52.277Z,24.30
2023-01-20T13:28:55.420Z,24.53
2023-01-20T13:33:07.831Z,23.60
2023-01-20T13:37:24.611Z,22.80
2023-01-20T13:41:48.611Z,22.80
2023-01-20T13:46:09.226Z,23.33
2023-01-20T13:50:23.473Z,29.33
2023-01-20T13:54:30.169Z,23.17
2023-01-20T13:58:33.226Z,22.33
2023-01-20T14:02:36.885Z,26.03
2023-01-20T14:06:47.061Z,21.70
2023-01-20T14:10:48.351Z,22.10
2023-01-20T14:14:49.920Z,22.00
2023-01-20T14:18:54.584Z,21.37
2023-01-20T14:22:58.003Z,22.33
2023-01-20T14:27:19.203Z,21.20
2023-01-20T14:31:23.867Z,23.10
2023-01-20T14:35:31.563Z,22.17
2023-01-20T14:39:33.123Z,21.83
2023-01-20T14:43:34.767Z,23.17
2023-01-20T14:47:36.931Z,25.73
2023-01-20T14:51:38.009Z,27.23
2023-01-20T14:55:40.169Z,29.13
2023-01-20T14:59:41.545Z,31.63
2023-01-20T15:03:42.671Z,38.10
2023-01-20T15:07:43.622Z,32.13
2023-01-20T15:11:45.634Z,31.23
2023-01-20T15:15:46.695Z,32.87
2023-01-20T15:19:47.720Z,34.10
2023-01-20T15:23:50.876Z,35.77
2023-01-20T15:27:53.632Z,40.23
2023-01-20T15:31:56.846Z,36.10
2023-01-20T15:35:59.439Z,38.23
2023-01-20T15:40:00.885Z,38.97
2023-01-20T15:44:01.849Z,38.57
2023-01-20T15:48:06.853Z,41.80
2023-01-20T15:52:10.204Z,41.73
2023-01-20T15:56:25.940Z,44.20
2023-01-20T16:00:28.767Z,42.03
2023-01-20T16:04:30.943Z,42.00
2023-01-20T16:08:36.013Z,40.63
2023-01-20T16:12:36.964Z,52.83
2023-01-20T16:16:38.186Z,49.30
2023-01-20T16:20:39.440Z,43.43
2023-01-20T16:24:41.642Z,47.07
2023-01-20T16:28:42.736Z,45.83
2023-01-20T16:32:47.013Z,58.73
2023-01-20T16:36:48.342Z,47.80
2023-01-20T16:40:58.829Z,43.47
2023-01-20T16:45:00.007Z,44.53
2023-01-20T16:49:02.396Z,49.00
2023-01-20T16:53:03.917Z,45.57
2023-01-20T16:57:05.016Z,44.13
2023-01-20T17:01:10.685Z,45.77
2023-01-20T17:05:11.754Z,44.50
2023-01-20T17:09:13.518Z,48.80
2023-01-20T17:13:14.539Z,47.63
2023-01-20T17:17:15.509Z,53.40
2023-01-20T17:21:21.895Z,52.17
2023-01-20T17:25:23.639Z,52.23
2023-01-20T17:29:24.876Z,49.93
2023-01-20T17:33:27.810Z,57.00
2023-01-20T17:37:29.012Z,52.63
2023-01-20T17:41:30.664Z,60.70
2023-01-20T17:45:31.961Z,74.33
2023-01-20T17:49:33.573Z,52.27
2023-01-20T17:53:34.592Z,48.93
2023-01-20T17:57:35.655Z,46.77
2023-01-20T18:01:37.008Z,45.00
2023-01-20T18:05:38.047Z,46.97
2023-01-20T18:09:39.891Z,45.70
2023-01-20T18:13:45.010Z,44.07
2023-01-20T18:17:46.380Z,55.75
2023-01-20T18:21:47.591Z,49.63
2023-01-20T18:25:53.568Z,50.43
2023-01-20T18:29:54.608Z,47.37
2023-01-20T18:33:58.264Z,45.20
2023-01-20T18:38:01.296Z,47.47
2023-01-20T18:42:02.589Z,47.93
2023-01-20T18:46:04.506Z,41.63
2023-01-20T18:50:06.939Z,45.27
2023-01-20T18:54:11.073Z,43.47
2023-01-20T18:58:14.013Z,45.57
2023-01-20T19:02:15.211Z,43.33
2023-01-20T19:06:21.993Z,39.47
2023-01-20T19:10:22.976Z,40.27
2023-01-20T19:14:24.161Z,40.53
2023-01-20T19:18:25.387Z,43.57
2023-01-20T19:22:26.503Z,37.67
2023-01-20T19:26:28.147Z,45.30
2023-01-20T19:30:29.221Z,38.77
2023-01-20T19:34:30.191Z,38.27
2023-01-20T19:38:33.306Z,38.67
2023-01-20T19:42:34.329Z,35.30
2023-01-20T19:46:38.022Z,34.63
2023-01-20T19:50:39.475Z,33.00
2023-01-20T19:54:40.964Z,29.93
2023-01-20T19:58:43.034Z,29.67
2023-01-20T20:02:44.402Z,30.63
2023-01-20T20:06:48.461Z,24.07
2023-01-20T20:10:50.477Z,22.70
2023-01-20T20:14:51.431Z,21.53
2023-01-20T20:18:54.550Z,24.20
2023-01-20T20:22:55.520Z,23.93
2023-01-20T20:26:57.518Z,27.20
2023-01-20T20:31:02.885Z,27.30
2023-01-20T20:35:05.669Z,31.00
2023-01-20T20:39:07.545Z,36.20
2023-01-20T20:43:08.705Z,33.90
2023-01-20T20:47:09.825Z,32.77
2023-01-20T20:51:13.758Z,34.93
2023-01-20T20:55:14.807Z,35.40
2023-01-20T20:59:15.904Z,33.53
2023-01-20T21:03:17.367Z,39.73
2023-01-20T21:07:18.893Z,37.50
2023-01-20T21:11:20.638Z,38.37
2023-01-20T21:15:24.924Z,38.83
2023-01-20T21:19:25.977Z,38.83
2023-01-20T21:23:28.699Z,31.13
2023-01-20T21:27:32.320Z,33.63
2023-01-20T21:31:36.931Z,29.90
2023-01-20T21:35:38.383Z,27.93
2023-01-20T21:39:39.600Z,29.70
2023-01-20T21:44:01.591Z,27.70
2023-01-20T21:48:04.906Z,30.60
2023-01-20T21:52:26.236Z,29.37
2023-01-20T21:56:27.255Z,30.70
2023-01-20T22:00:29.246Z,30.87
2023-01-20T22:04:31.701Z,27.23
2023-01-20T22:08:32.841Z,27.53
2023-01-20T22:12:34.978Z,29.00
2023-01-20T22:16:36.602Z,30.37
2023-01-20T22:20:38.949Z,26.13
2023-01-20T22:24:39.931Z,24.07
2023-01-20T22:28:41.115Z,22.27
2023-01-20T22:32:42.215Z,23.27
2023-01-20T22:36:44.415Z,21.57
2023-01-20T22:40:45.486Z,23.97
2023-01-20T22:44:46.722Z,19.80
2023-01-20T22:48:48.219Z,22.97
2023-01-20T22:52:49.622Z,28.70
2023-01-20T22:56:50.637Z,23.67
2023-01-20T23:00:51.853Z,23.90
2023-01-20T23:04:52.854Z,20.40
2023-01-20T23:08:54.358Z,21.87
2023-01-20T23:12:55.319Z,21.13
2023-01-20T23:16:56.395Z,25.90
2023-01-20T23:20:57.949Z,21.03
2023-01-20T23:24:58.912Z,22.60
2023-01-20T23:29:00.026Z,28.40
2023-01-20T23:33:01.018Z,25.07
2023-01-20T23:37:02.066Z,25.90
2023-01-20T23:41:03.333Z,37.47
2023-01-20T23:45:05.162Z,34.13
2023-01-20T23:49:06.409Z,38.30
2023-01-20T23:53:07.364Z,31.33
2023-01-20T23:57:08.501Z,30.77
